Time;durP1;ratioP1;P1;durP2;ratioP2;P2;SDS_P1;SDS_P2;PMS_P1;PMS_P2;Temp;Humidity;BMP_temperature;BMP_pressure;BME280_temperature;BME280_humidity;BME280_pressure;Samples;Min_cycle;Max_cycle;Signal;HPM_P1;HPM_P2
2021/11/18 00:01:25;;;;;;;13.40;6.40;;;;;;;4.34;100.00;101982.69;5018022;28;20033;-77
2021/11/18 00:03:51;;;;;;;14.52;6.57;;;;;;;4.32;100.00;101979.31;4986407;28;20018;-77
2021/11/18 00:06:16;;;;;;;15.32;6.80;;;;;;;4.31;100.00;101977.63;4985685;28;20389;-77
2021/11/18 00:08:42;;;;;;;13.88;6.78;;;;;;;4.29;100.00;101975.09;4982029;28;20029;-77
2021/11/18 00:11:09;;;;;;;19.30;6.65;;;;;;;4.28;100.00;101973.41;4997691;28;20063;-76
2021/11/18 00:13:37;;;;;;;20.38;6.75;;;;;;;4.28;100.00;101978.06;5025225;28;20022;-76
2021/11/18 00:16:03;;;;;;;17.65;6.15;;;;;;;4.27;100.00;101976.38;5014893;28;20034;-76
2021/11/18 00:18:31;;;;;;;19.90;6.18;;;;;;;4.24;100.00;101972.16;5016235;28;20049;-77
2021/11/18 00:21:01;;;;;;;18.02;6.05;;;;;;;4.22;100.00;101972.34;5035116;28;20033;-76
2021/11/18 00:23:29;;;;;;;12.73;5.72;;;;;;;4.20;100.00;101971.72;5033764;28;20409;-76
2021/11/18 00:25:55;;;;;;;12.88;5.85;;;;;;;4.18;100.00;101981.25;5032126;28;20033;-76
2021/11/18 00:28:20;;;;;;;12.85;5.78;;;;;;;4.16;100.00;101978.72;5033075;28;20044;-76
2021/11/18 00:30:46;;;;;;;12.60;5.80;;;;;;;4.15;100.00;101979.81;5036606;28;20032;-76
2021/11/18 00:33:12;;;;;;;16.73;6.03;;;;;;;4.13;100.00;101975.56;5015804;28;20025;-76
2021/11/18 00:35:37;;;;;;;16.23;6.03;;;;;;;4.10;100.00;101974.09;5034451;28;20040;-76
2021/11/18 00:38:03;;;;;;;13.48;6.10;;;;;;;4.09;100.00;101975.13;5032908;28;20152;-76
2021/11/18 00:40:34;;;;;;;14.48;6.00;;;;;;;4.10;100.00;101970.50;5034428;28;20543;-76
2021/11/18 00:43:00;;;;;;;11.50;5.72;;;;;;;4.07;100.00;101979.16;5028884;28;20163;-76
2021/11/18 00:45:26;;;;;;;11.90;6.13;;;;;;;4.07;100.00;101980.03;5033594;28;20089;-76
2021/11/18 00:47:52;;;;;;;16.65;6.28;;;;;;;4.05;100.00;101990.41;5032316;28;20041;-76
2021/11/18 00:50:19;;;;;;;14.13;5.55;;;;;;;4.03;100.00;101998.00;5005016;28;20037;-76
2021/11/18 00:52:45;;;;;;;15.60;6.13;;;;;;;4.01;100.00;101990.00;5033788;28;20118;-76
2021/11/18 00:55:11;;;;;;;11.25;5.72;;;;;;;3.99;100.00;101994.84;5032441;28;20029;-76
2021/11/18 00:57:36;;;;;;;13.07;6.32;;;;;;;3.98;100.00;101998.66;5026506;28;20030;-77
2021/11/18 01:00:16;;;;;;;16.48;5.90;;;;;;;3.96;100.00;101998.03;5028904;28;20032;-76
2021/11/18 01:02:43;;;;;;;11.55;5.20;;;;;;;3.96;100.00;101995.28;5030176;28;20034;-76
2021/11/18 01:05:08;;;;;;;11.88;6.50;;;;;;;3.94;100.00;101989.13;5034398;28;20037;-76
2021/11/18 01:07:34;;;;;;;13.52;6.07;;;;;;;3.93;100.00;101987.47;5033040;28;20437;-76
2021/11/18 01:10:00;;;;;;;13.98;5.63;;;;;;;3.92;100.00;101985.75;5033513;28;20067;-76
2021/11/18 01:12:25;;;;;;;11.05;5.10;;;;;;;3.91;100.00;101989.56;5029784;28;20034;-77
2021/11/18 01:14:51;;;;;;;14.65;4.95;;;;;;;3.90;100.00;101987.03;5028611;28;20045;-76
2021/11/18 01:17:16;;;;;;;15.57;5.53;;;;;;;3.89;100.00;101982.59;5017753;28;20045;-77
2021/11/18 01:19:42;;;;;;;15.20;6.32;;;;;;;3.88;100.00;101989.16;5033981;28;20393;-76
2021/11/18 01:22:07;;;;;;;15.60;6.50;;;;;;;3.87;100.00;101982.78;5033423;28;20117;-76
2021/11/18 01:24:36;;;;;;;13.88;6.05;;;;;;;3.86;100.00;101977.53;5035266;28;20516;-76
2021/11/18 01:27:02;;;;;;;12.15;5.93;;;;;;;3.86;100.00;101974.78;5020104;28;20038;-76
2021/11/18 01:29:29;;;;;;;15.45;6.28;;;;;;;3.86;100.00;101966.53;5033507;28;20037;-76
2021/11/18 01:31:54;;;;;;;13.32;7.07;;;;;;;3.85;100.00;101964.84;5038669;28;20030;-76
2021/11/18 01:34:20;;;;;;;11.00;5.68;;;;;;;3.84;100.00;101965.91;5036249;28;20026;-76
2021/11/18 01:36:45;;;;;;;19.20;6.72;;;;;;;3.83;100.00;101966.97;5036917;28;20037;-76
2021/11/18 01:39:11;;;;;;;13.38;5.45;;;;;;;3.83;100.00;101970.56;5032529;28;20037;-77
2021/11/18 01:41:37;;;;;;;16.13;6.50;;;;;;;3.82;100.00;101977.13;5038117;28;20045;-77
2021/11/18 01:44:05;;;;;;;12.57;6.25;;;;;;;3.81;100.00;101972.66;5036888;28;20026;-76
2021/11/18 01:46:34;;;;;;;16.02;7.47;;;;;;;3.80;100.00;101977.31;5037482;28;20037;-77
2021/11/18 01:49:00;;;;;;;14.05;6.88;;;;;;;3.79;100.00;101975.63;5034246;28;20061;-76
2021/11/18 01:51:28;;;;;;;16.67;6.55;;;;;;;3.79;100.00;101975.63;5007040;28;20037;-77
2021/11/18 01:53:53;;;;;;;12.68;6.50;;;;;;;3.77;100.00;101972.25;5007490;28;20153;-77
2021/11/18 01:56:27;;;;;;;14.65;6.38;;;;;;;3.72;100.00;101974.78;5034099;28;20064;-76
2021/11/18 01:59:02;;;;;;;15.98;6.97;;;;;;;3.73;100.00;101971.00;5027808;28;20081;-76
2021/11/18 02:01:28;;;;;;;13.75;6.70;;;;;;;3.72;100.00;101962.97;5037999;28;20117;-77
2021/11/18 02:03:53;;;;;;;11.73;6.22;;;;;;;3.71;100.00;101966.78;5027876;28;20480;-76
2021/11/18 02:06:41;;;;;;;16.85;6.95;;;;;;;3.69;100.00;101961.47;5035225;28;20389;-76
2021/11/18 02:09:12;;;;;;;15.63;5.88;;;;;;;3.67;100.00;101960.84;5037563;28;20026;-76
2021/11/18 02:11:40;;;;;;;12.23;5.85;;;;;;;3.64;100.00;101975.00;5024723;28;20116;-77
2021/11/18 02:14:07;;;;;;;14.80;6.43;;;;;;;3.62;100.00;101976.25;5034454;28;20055;-76
2021/11/18 02:16:33;;;;;;;12.52;6.20;;;;;;;3.61;100.00;101969.09;5018172;28;20030;-77
2021/11/18 02:18:58;;;;;;;14.13;5.85;;;;;;;3.56;100.00;101980.72;5034364;28;20041;-77
2021/11/18 02:21:24;;;;;;;13.18;5.90;;;;;;;3.53;100.00;101990.22;5018172;28;20033;-76
2021/11/18 02:23:52;;;;;;;14.48;6.00;;;;;;;3.52;100.00;101996.78;5037390;28;20042;-77
2021/11/18 02:26:18;;;;;;;11.30;5.43;;;;;;;3.52;100.00;101991.28;5034099;28;20041;-76
2021/11/18 02:28:45;;;;;;;10.00;5.63;;;;;;;3.49;100.00;101983.47;5001943;28;20029;-76
2021/11/18 02:31:25;;;;;;;15.45;5.65;;;;;;;3.47;100.00;101995.72;5025714;28;20524;-77
2021/11/18 02:33:51;;;;;;;12.73;5.50;;;;;;;3.45;100.00;101990.41;5034465;28;20025;-77
2021/11/18 02:36:16;;;;;;;11.73;5.47;;;;;;;3.42;100.00;101979.84;5033384;28;20032;-77
2021/11/18 02:38:42;;;;;;;10.75;5.35;;;;;;;3.40;100.00;101981.13;5037196;28;20139;-76
2021/11/18 02:41:10;;;;;;;10.32;5.32;;;;;;;3.38;100.00;101983.25;5009200;28;20041;-77
2021/11/18 02:43:35;;;;;;;9.85;4.97;;;;;;;3.36;100.00;101987.03;5025578;28;20041;-76
2021/11/18 02:46:01;;;;;;;12.27;5.43;;;;;;;3.35;100.00;101981.78;5035276;28;20033;-77
2021/11/18 02:48:26;;;;;;;9.23;4.88;;;;;;;3.36;100.00;101986.19;5015883;28;20099;-77
2021/11/18 02:50:54;;;;;;;13.63;5.93;;;;;;;3.28;100.00;101987.25;5035503;28;20029;-77
2021/11/18 02:53:20;;;;;;;12.95;5.30;;;;;;;3.27;100.00;101988.31;5031888;28;20030;-77
2021/11/18 02:55:47;;;;;;;12.40;5.28;;;;;;;3.24;100.00;101999.72;5018684;28;20041;-77
2021/11/18 02:58:12;;;;;;;11.15;4.93;;;;;;;3.28;100.00;102000.97;5034987;28;20030;-77
2021/11/18 03:01:03;;;;;;;9.85;5.13;;;;;;;3.20;100.00;101998.44;5019635;28;20041;-77
2021/11/18 03:03:28;;;;;;;10.77;4.68;;;;;;;3.20;100.00;102000.34;5016080;28;20097;-77
2021/11/18 03:05:55;;;;;;;9.77;4.57;;;;;;;3.18;100.00;101997.81;5034119;28;20026;-77
2021/11/18 03:08:22;;;;;;;10.75;4.80;;;;;;;3.14;100.00;101989.13;5019502;28;20064;-77
2021/11/18 03:10:48;;;;;;;11.20;5.20;;;;;;;3.14;100.00;101996.53;5012591;28;20426;-77
2021/11/18 03:13:14;;;;;;;9.75;4.85;;;;;;;3.13;100.00;101992.94;5015850;28;20021;-77
2021/11/18 03:15:40;;;;;;;13.50;4.53;;;;;;;3.10;100.00;102000.75;5037098;28;20029;-76
2021/11/18 03:18:06;;;;;;;10.35;4.82;;;;;;;3.08;100.00;101998.19;5013255;28;20022;-76
2021/11/18 03:20:31;;;;;;;12.23;5.53;;;;;;;3.07;100.00;101993.78;5016169;28;20045;-77
2021/11/18 03:22:57;;;;;;;9.20;4.72;;;;;;;3.03;100.00;101995.22;5019089;28;20050;-77
2021/11/18 03:25:25;;;;;;;10.75;5.13;;;;;;;3.02;100.00;101998.19;5012886;28;20030;-76
2021/11/18 03:27:50;;;;;;;12.10;4.60;;;;;;;3.00;100.00;101998.38;5032969;28;20087;-76
2021/11/18 03:30:22;;;;;;;12.25;5.20;;;;;;;3.00;100.00;101997.56;5034124;28;20030;-76
2021/11/18 03:32:49;;;;;;;11.15;4.85;;;;;;;2.99;100.00;102002.19;5015173;28;20033;-76
2021/11/18 03:35:14;;;;;;;12.23;5.15;;;;;;;2.98;100.00;102013.38;5033058;28;20029;-76
2021/11/18 03:37:40;;;;;;;9.73;4.70;;;;;;;2.95;100.00;102006.41;5033790;28;20078;-76
2021/11/18 03:40:05;;;;;;;10.50;4.72;;;;;;;2.93;100.00;102008.53;5000090;28;20029;-76
2021/11/18 03:42:31;;;;;;;8.05;4.95;;;;;;;2.93;100.00;102013.16;5033362;28;20033;-76
2021/11/18 03:44:56;;;;;;;9.93;5.25;;;;;;;2.91;100.00;102011.47;5032755;28;20692;-77
2021/11/18 03:47:22;;;;;;;7.75;4.40;;;;;;;2.90;100.00;102017.16;5030341;28;20033;-77
2021/11/18 03:49:47;;;;;;;9.25;4.18;;;;;;;2.84;100.00;102016.09;5031519;28;20030;-77
2021/11/18 03:52:14;;;;;;;10.23;4.53;;;;;;;2.82;100.00;102014.59;5032917;28;20040;-77
2021/11/18 03:54:40;;;;;;;9.00;4.72;;;;;;;2.83;100.00;102019.03;5029339;28;20032;-77
2021/11/18 03:57:05;;;;;;;9.27;4.32;;;;;;;2.81;100.00;102011.00;5004819;28;20498;-76
2021/11/18 03:59:33;;;;;;;9.10;4.78;;;;;;;2.80;100.00;101997.50;5016807;28;20052;-76
2021/11/18 04:01:59;;;;;;;8.35;4.50;;;;;;;2.74;100.00;101993.69;5033421;28;20038;-77
2021/11/18 04:04:30;;;;;;;8.65;4.93;;;;;;;2.74;100.00;101998.31;5033800;28;20030;-76
2021/11/18 04:06:55;;;;;;;9.02;4.47;;;;;;;2.71;100.00;101996.00;5040509;28;20034;-76
2021/11/18 04:09:21;;;;;;;9.18;4.65;;;;;;;2.68;100.00;101998.09;5032123;28;20037;-76
2021/11/18 04:11:49;;;;;;;9.05;4.78;;;;;;;2.69;100.00;101998.94;5032118;28;20029;-77
2021/11/18 04:14:14;;;;;;;9.48;5.25;;;;;;;2.63;100.00;101995.13;5033527;28;20033;-76
2021/11/18 04:16:40;;;;;;;9.10;5.28;;;;;;;2.64;100.00;101993.22;5017292;28;20512;-76
2021/11/18 04:19:05;;;;;;;8.48;4.75;;;;;;;2.62;100.00;102003.56;5033327;28;20034;-77
2021/11/18 04:21:32;;;;;;;10.63;4.90;;;;;;;2.60;100.00;101997.44;5035827;28;20086;-77
2021/11/18 04:23:59;;;;;;;10.23;4.70;;;;;;;2.58;100.00;101994.03;5037759;28;20112;-76
2021/11/18 04:26:25;;;;;;;10.45;5.10;;;;;;;2.56;100.00;102001.63;5034458;28;20029;-77
2021/11/18 04:28:50;;;;;;;9.82;5.38;;;;;;;2.54;100.00;101999.09;5034332;28;20094;-76
2021/11/18 04:31:17;;;;;;;12.35;4.82;;;;;;;2.54;100.00;101992.78;5031469;28;20033;-77
2021/11/18 04:33:43;;;;;;;9.68;4.97;;;;;;;2.53;100.00;101996.53;5035675;28;20030;-76
2021/11/18 04:36:10;;;;;;;11.63;4.60;;;;;;;2.55;100.00;101999.94;5010783;28;20030;-76
2021/11/18 04:38:35;;;;;;;17.80;4.85;;;;;;;2.51;100.00;101999.50;5014787;28;20095;-77
2021/11/18 04:41:01;;;;;;;11.27;4.78;;;;;;;2.50;100.00;102007.94;5035927;28;20108;-76
2021/11/18 04:43:27;;;;;;;9.88;4.85;;;;;;;2.50;100.00;102007.94;5029906;28;20119;-76
2021/11/18 04:45:52;;;;;;;8.70;4.47;;;;;;;2.48;100.00;102008.16;5014398;28;20025;-76
2021/11/18 04:48:18;;;;;;;9.55;4.60;;;;;;;2.47;100.00;102003.69;5009981;28;20037;-76
2021/11/18 04:50:43;;;;;;;7.85;4.25;;;;;;;2.47;100.00;102014.66;5033008;28;20033;-76
2021/11/18 04:53:09;;;;;;;11.70;4.90;;;;;;;2.43;100.00;102006.00;5013474;28;20056;-77
2021/11/18 04:55:35;;;;;;;8.70;4.68;;;;;;;2.42;100.00;102009.81;5018960;28;20028;-77
2021/11/18 04:58:01;;;;;;;8.80;4.40;;;;;;;2.42;100.00;102004.31;5028177;28;20030;-77
2021/11/18 05:00:33;;;;;;;12.32;4.78;;;;;;;2.35;100.00;102006.16;5044042;28;20030;-76
2021/11/18 05:02:59;;;;;;;11.70;5.28;;;;;;;2.41;100.00;102010.00;5039241;28;20036;-76
2021/11/18 05:05:25;;;;;;;10.18;5.03;;;;;;;2.40;100.00;102009.16;5036885;28;20033;-77
2021/11/18 05:07:50;;;;;;;7.10;4.35;;;;;;;2.38;100.00;102011.25;5035886;28;20033;-77
2021/11/18 05:10:16;;;;;;;14.23;5.85;;;;;;;2.36;100.00;102007.00;5022127;28;20037;-76
2021/11/18 05:12:42;;;;;;;7.95;4.80;;;;;;;2.36;100.00;102007.00;5030423;28;20513;-76
2021/11/18 05:15:09;;;;;;;9.50;5.28;;;;;;;2.29;100.00;102012.47;5030580;28;20112;-77
2021/11/18 05:17:35;;;;;;;10.02;4.70;;;;;;;2.32;100.00;102012.06;5036909;28;20366;-77
2021/11/18 05:20:00;;;;;;;8.18;4.43;;;;;;;2.32;100.00;102012.06;5020615;28;20147;-77
2021/11/18 05:22:26;;;;;;;12.40;5.15;;;;;;;2.32;100.00;102022.19;5028181;28;20050;-77
2021/11/18 05:24:52;;;;;;;12.73;5.65;;;;;;;2.24;100.00;102020.44;5020463;28;20061;-76
2021/11/18 05:27:20;;;;;;;10.95;5.05;;;;;;;2.20;100.00;102030.13;5020497;28;20478;-76
2021/11/18 05:29:45;;;;;;;10.85;5.70;;;;;;;2.21;100.00;102037.31;5029463;28;20033;-76
2021/11/18 05:32:11;;;;;;;11.23;5.53;;;;;;;2.23;100.00;102051.66;5028101;28;20087;-76
2021/11/18 05:34:39;;;;;;;8.48;5.03;;;;;;;2.28;100.00;102042.81;5037635;28;20033;-76
2021/11/18 05:37:05;;;;;;;11.45;6.10;;;;;;;2.28;100.00;102043.66;5018233;28;20029;-76
2021/11/18 05:39:30;;;;;;;10.07;5.25;;;;;;;2.35;100.00;102050.03;5008020;28;20082;-76
2021/11/18 05:41:56;;;;;;;11.38;5.15;;;;;;;2.36;100.00;102038.00;5043815;28;20029;-77
2021/11/18 05:44:21;;;;;;;13.68;5.32;;;;;;;2.38;100.00;102046.91;5040098;28;20045;-76
2021/11/18 05:46:47;;;;;;;14.45;5.72;;;;;;;2.42;100.00;102036.34;5039485;28;20029;-76
2021/11/18 05:49:12;;;;;;;19.17;6.47;;;;;;;2.44;100.00;102040.59;5026089;28;20037;-77
2021/11/18 05:51:38;;;;;;;11.40;5.45;;;;;;;2.46;100.00;102045.88;5035425;28;20041;-77
2021/11/18 05:54:07;;;;;;;11.18;4.88;;;;;;;2.50;100.00;102038.09;5037235;28;20030;-76
2021/11/18 05:56:33;;;;;;;10.85;5.40;;;;;;;2.55;100.00;102043.81;5034526;28;20052;-76
2021/11/18 05:58:58;;;;;;;10.70;5.07;;;;;;;2.55;100.00;102044.66;5034547;28;20445;-76
2021/11/18 06:01:26;;;;;;;12.52;5.70;;;;;;;2.56;100.00;102040.84;5036094;28;20042;-76
2021/11/18 06:03:52;;;;;;;10.98;5.40;;;;;;;2.60;100.00;102046.81;5016772;28;20037;-76
2021/11/18 06:06:18;;;;;;;11.25;5.57;;;;;;;2.62;100.00;102048.28;5033024;28;20117;-76
2021/11/18 06:08:43;;;;;;;14.23;5.72;;;;;;;2.68;100.00;102050.22;5036338;28;20596;-76
2021/11/18 06:11:09;;;;;;;12.90;5.95;;;;;;;2.67;100.00;102053.16;5017197;28;20033;-77
2021/11/18 06:13:34;;;;;;;10.18;5.15;;;;;;;2.69;100.00;102053.81;5030473;28;20504;-76
2021/11/18 06:16:01;;;;;;;12.55;5.63;;;;;;;2.72;100.00;102050.66;5024715;28;20029;-76
2021/11/18 06:18:26;;;;;;;11.40;5.80;;;;;;;2.75;100.00;102052.13;5033595;28;20030;-76
2021/11/18 06:20:52;;;;;;;9.75;5.07;;;;;;;2.78;100.00;102051.72;5037793;28;20033;-76
2021/11/18 06:23:17;;;;;;;10.43;4.80;;;;;;;2.81;100.00;102049.41;5019579;28;20053;-76
2021/11/18 06:25:43;;;;;;;9.55;5.43;;;;;;;2.83;100.00;102047.31;5035913;28;20030;-76
2021/11/18 06:28:09;;;;;;;12.68;5.10;;;;;;;2.87;100.00;102050.50;5036531;28;20483;-75
2021/11/18 06:30:38;;;;;;;12.35;5.95;;;;;;;2.86;100.00;102052.38;5025695;28;20038;-75
2021/11/18 06:33:03;;;;;;;11.13;5.30;;;;;;;2.85;100.00;102061.69;5033238;28;20051;-75
2021/11/18 06:35:29;;;;;;;14.35;5.43;;;;;;;2.90;100.00;102055.59;5026147;28;20517;-75
2021/11/18 06:37:54;;;;;;;11.00;5.20;;;;;;;2.93;100.00;102057.09;5016639;28;20045;-75
2021/11/18 06:40:20;;;;;;;8.90;4.70;;;;;;;2.97;100.00;102058.34;5028126;28;20025;-75
2021/11/18 06:42:47;;;;;;;11.25;4.88;;;;;;;2.99;100.00;102054.34;5035733;28;20030;-75
2021/11/18 06:45:14;;;;;;;15.55;5.07;;;;;;;3.00;100.00;102047.78;5034977;28;20104;-75
2021/11/18 06:47:39;;;;;;;9.75;4.93;;;;;;;3.05;100.00;102049.94;5017049;28;20025;-75
2021/11/18 06:50:05;;;;;;;8.80;4.45;;;;;;;3.04;100.00;102048.25;5034086;28;20548;-75
2021/11/18 06:52:31;;;;;;;10.82;5.25;;;;;;;3.07;100.00;102054.16;5032085;28;20030;-75
2021/11/18 06:54:56;;;;;;;9.55;5.20;;;;;;;3.12;100.00;102050.78;5012119;28;20033;-75
2021/11/18 06:57:22;;;;;;;11.57;4.90;;;;;;;3.13;100.00;102052.50;5028821;28;20041;-75
2021/11/18 06:59:47;;;;;;;13.18;5.38;;;;;;;3.16;100.00;102051.22;5030871;28;20041;-75
2021/11/18 07:02:13;;;;;;;12.57;4.90;;;;;;;3.16;100.00;102054.81;5035718;28;20497;-75
2021/11/18 07:04:38;;;;;;;9.25;5.10;;;;;;;3.12;100.00;102056.28;5032806;28;20040;-75
2021/11/18 07:07:04;;;;;;;14.93;6.18;;;;;;;3.15;100.00;102061.38;5016218;28;20030;-75
2021/11/18 07:09:30;;;;;;;12.68;5.63;;;;;;;3.17;100.00;102063.91;5035442;28;20025;-75
2021/11/18 07:11:56;;;;;;;12.20;5.72;;;;;;;3.14;100.00;102060.50;5034599;28;20048;-77
2021/11/18 07:14:22;;;;;;;9.38;5.30;;;;;;;3.16;100.00;102063.06;5045204;28;20033;-72
2021/11/18 07:16:47;;;;;;;11.43;5.93;;;;;;;3.18;100.00;102074.69;5029750;28;20025;-72
2021/11/18 07:19:13;;;;;;;9.07;5.53;;;;;;;3.20;100.00;102079.94;5034994;28;20061;-72
2021/11/18 07:21:38;;;;;;;11.73;5.82;;;;;;;3.21;100.00;102077.00;5032074;28;20093;-76
2021/11/18 07:24:05;;;;;;;10.05;5.47;;;;;;;3.22;100.00;102075.94;5033667;28;20041;-75
2021/11/18 07:26:31;;;;;;;13.15;6.30;;;;;;;3.23;100.00;102085.91;5034036;28;20056;-75
2021/11/18 07:28:57;;;;;;;14.02;5.40;;;;;;;3.24;100.00;102087.59;5017004;28;20076;-76
2021/11/18 07:31:22;;;;;;;10.50;5.55;;;;;;;3.24;100.00;102090.31;5019235;28;20386;-76
2021/11/18 07:33:48;;;;;;;11.23;6.10;;;;;;;3.25;100.00;102089.25;5000006;28;20021;-76
2021/11/18 07:36:13;;;;;;;11.55;5.93;;;;;;;3.27;100.00;102087.16;5016037;28;20497;-75
2021/11/18 07:38:39;;;;;;;11.20;5.85;;;;;;;3.27;100.00;102086.31;5016360;28;20048;-75
2021/11/18 07:41:06;;;;;;;11.77;5.93;;;;;;;3.30;100.00;102089.50;5028868;28;20092;-75
2021/11/18 07:43:33;;;;;;;11.40;6.40;;;;;;;3.30;100.00;102092.25;5014694;28;20044;-76
2021/11/18 07:46:02;;;;;;;12.85;6.00;;;;;;;3.34;100.00;102100.91;5015674;28;20025;-75
2021/11/18 07:48:28;;;;;;;12.00;5.50;;;;;;;3.35;100.00;102100.72;5015531;28;20037;-75
2021/11/18 07:50:54;;;;;;;10.95;6.35;;;;;;;3.36;100.00;102099.63;4998216;28;20030;-75
2021/11/18 07:53:19;;;;;;;14.02;5.72;;;;;;;3.39;100.00;102101.13;5019706;28;20021;-75
2021/11/18 07:55:47;;;;;;;9.32;5.50;;;;;;;3.41;100.00;102100.94;5012260;28;20084;-75
2021/11/18 07:58:13;;;;;;;9.88;5.35;;;;;;;3.43;100.00;102107.06;5029535;28;20033;-75
2021/11/18 08:00:39;;;;;;;13.13;7.22;;;;;;;3.39;100.00;102114.03;5014556;28;20120;-75
2021/11/18 08:03:09;;;;;;;10.98;5.75;;;;;;;3.45;100.00;102118.69;5025669;28;20087;-75
2021/11/18 08:05:34;;;;;;;12.95;6.80;;;;;;;3.49;100.00;102128.22;5016938;28;20033;-75
2021/11/18 08:08:00;;;;;;;11.40;7.13;;;;;;;3.52;100.00;102125.06;5018158;28;20523;-75
2021/11/18 08:10:25;;;;;;;11.77;6.55;;;;;;;3.53;100.00;102122.06;5031934;28;20033;-75
2021/11/18 08:12:51;;;;;;;11.10;7.13;;;;;;;3.62;100.00;102119.97;5015267;28;20061;-75
2021/11/18 08:15:18;;;;;;;13.82;7.60;;;;;;;3.65;100.00;102125.09;5034729;28;20040;-75
2021/11/18 08:17:44;;;;;;;15.43;7.47;;;;;;;3.68;100.00;102118.31;5032401;28;20029;-75
2021/11/18 08:20:10;;;;;;;16.17;7.65;;;;;;;3.69;100.00;102129.09;5016339;28;20493;-75
2021/11/18 08:22:35;;;;;;;14.40;6.82;;;;;;;3.72;100.00;102128.66;5035030;28;20056;-75
2021/11/18 08:25:01;;;;;;;12.70;7.00;;;;;;;3.78;100.00;102133.31;5017794;28;20033;-75
2021/11/18 08:27:26;;;;;;;11.18;6.93;;;;;;;3.83;100.00;102134.63;5034411;28;20029;-75
2021/11/18 08:29:52;;;;;;;12.55;7.28;;;;;;;3.88;100.00;102143.09;5004926;28;20038;-75
2021/11/18 08:32:17;;;;;;;14.15;6.80;;;;;;;3.92;100.00;102138.84;5030721;28;20041;-75
2021/11/18 08:34:44;;;;;;;13.75;8.50;;;;;;;3.98;100.00;102132.50;5016566;28;20022;-75
2021/11/18 08:37:09;;;;;;;16.15;7.85;;;;;;;4.00;100.00;102130.38;5034185;28;20095;-75
2021/11/18 08:39:35;;;;;;;13.00;8.05;;;;;;;4.05;100.00;102127.84;5010974;28;20033;-75
2021/11/18 08:42:03;;;;;;;16.35;8.60;;;;;;;4.11;100.00;102128.91;5032461;28;20565;-75
2021/11/18 08:44:29;;;;;;;14.95;8.43;;;;;;;4.16;100.00;102135.47;5017183;28;20083;-76
2021/11/18 08:46:55;;;;;;;13.38;8.20;;;;;;;4.22;100.00;102142.03;5015020;28;20108;-76
2021/11/18 08:49:20;;;;;;;15.57;9.00;;;;;;;4.29;100.00;102147.50;5032636;28;20032;-75
2021/11/18 08:51:46;;;;;;;14.45;8.57;;;;;;;4.32;100.00;102139.72;5016362;28;20029;-76
2021/11/18 08:54:16;;;;;;;15.50;8.52;;;;;;;4.39;100.00;102145.19;5032051;28;20029;-76
2021/11/18 08:56:41;;;;;;;13.05;7.60;;;;;;;4.45;100.00;102145.16;5015035;28;20036;-76
2021/11/18 08:59:07;;;;;;;13.18;8.10;;;;;;;4.52;100.00;102150.69;5017703;28;20030;-76
2021/11/18 09:01:38;;;;;;;14.88;8.65;;;;;;;4.58;100.00;102152.56;5000391;28;20064;-75
2021/11/18 09:04:09;;;;;;;22.55;13.70;;;;;;;4.65;100.00;102144.28;4998445;28;20034;-75
2021/11/18 09:06:35;;;;;;;14.88;8.80;;;;;;;4.70;100.00;102145.34;5028742;28;20030;-75
2021/11/18 09:09:00;;;;;;;16.65;9.80;;;;;;;4.78;100.00;102148.94;5030744;28;20032;-75
2021/11/18 09:11:27;;;;;;;19.73;11.50;;;;;;;4.86;100.00;102151.47;5032682;28;20030;-75
2021/11/18 09:13:53;;;;;;;20.38;11.05;;;;;;;4.93;100.00;102157.78;5037178;28;20028;-75
2021/11/18 09:16:20;;;;;;;17.95;10.75;;;;;;;4.99;100.00;102154.19;5038988;28;20045;-75
2021/11/18 09:18:46;;;;;;;18.58;11.18;;;;;;;5.06;100.00;102160.50;5018652;28;20040;-75
2021/11/18 09:21:13;;;;;;;24.27;14.38;;;;;;;5.14;100.00;102168.50;5005842;28;20029;-75
2021/11/18 09:23:43;;;;;;;21.77;14.82;;;;;;;5.21;100.00;102173.16;5031527;28;20501;-75
2021/11/18 09:26:09;;;;;;;19.92;12.20;;;;;;;5.25;100.00;102178.00;5027285;28;20083;-75
2021/11/18 09:28:34;;;;;;;17.73;11.57;;;;;;;5.32;100.00;102173.34;4999623;28;20033;-75
2021/11/18 09:31:01;;;;;;;17.55;11.32;;;;;;;5.38;100.00;102179.88;5034263;28;20496;-75
2021/11/18 09:33:27;;;;;;;17.35;11.27;;;;;;;5.46;100.00;102179.63;5017515;28;20017;-76
2021/11/18 09:35:58;;;;;;;20.00;11.48;;;;;;;5.52;100.00;102178.75;4994427;28;20087;-75
2021/11/18 09:38:25;;;;;;;17.65;11.45;;;;;;;5.57;100.00;102173.44;5033119;28;20084;-76
2021/11/18 09:41:25;;;;;;;19.67;11.30;;;;;;;5.66;100.00;102178.69;5016648;28;20037;-76
2021/11/18 09:44:12;;;;;;;19.27;11.23;;;;;;;5.72;100.00;102184.16;5034269;28;20045;-75
2021/11/18 09:46:40;;;;;;;24.13;13.95;;;;;;;5.82;100.00;102187.28;5036587;28;20033;-75
2021/11/18 09:49:28;;;;;;;38.25;17.65;;;;;;;5.90;100.00;102186.16;5035834;28;20038;-76
2021/11/18 09:51:59;;;;;;;32.75;17.38;;;;;;;5.95;100.00;102177.25;5037395;28;20021;-76
2021/11/18 09:54:49;;;;;;;27.10;14.52;;;;;;;6.03;100.00;102191.63;5034356;28;20071;-75
2021/11/18 09:58:08;;;;;;;23.65;13.07;;;;;;;6.09;100.00;102181.59;5028184;28;20033;-76
2021/11/18 10:01:01;;;;;;;21.98;11.65;;;;;;;6.15;100.00;102172.44;5035655;28;20061;-76
2021/11/18 10:03:52;;;;;;;20.33;12.90;;;;;;;6.26;100.00;102173.63;5036975;28;20091;-76
2021/11/18 10:06:44;;;;;;;29.25;13.77;;;;;;;6.34;100.00;102170.59;5017149;28;20516;-76
2021/11/18 10:09:48;;;;;;;31.17;15.05;;;;;;;6.45;100.00;102177.28;5034849;28;20045;-76
2021/11/18 10:12:46;;;;;;;;;;;;;;;6.52;100.00;102174.44;5028152;28;20069;-77
2021/11/18 10:15:19;;;;;;;22.25;12.77;;;;;;;6.63;100.00;102170.94;5026093;28;19916;-76
2021/11/18 10:17:53;;;;;;;23.40;14.50;;;;;;;6.75;100.00;102177.44;5033526;28;20393;-75
2021/11/18 10:20:25;;;;;;;22.02;13.45;;;;;;;6.81;100.00;102179.28;5017858;28;20104;-76
2021/11/18 10:23:04;;;;;;;18.67;12.32;;;;;;;6.91;100.00;102178.75;5004682;28;20049;-76
2021/11/18 10:25:35;;;;;;;20.27;13.10;;;;;;;7.04;100.00;102183.28;5019527;28;20111;-76
2021/11/18 10:28:36;;;;;;;22.45;13.60;;;;;;;7.17;100.00;102183.13;5021032;28;20108;-75
2021/11/18 10:31:24;;;;;;;27.40;12.55;;;;;;;7.25;100.00;102176.47;5040805;28;20042;-75
2021/11/18 10:34:09;;;;;;;21.23;14.07;;;;;;;7.37;100.00;102169.06;5036374;28;20055;-75
2021/11/18 10:36:53;;;;;;;23.23;12.82;;;;;;;7.47;100.00;102174.91;5001898;28;20030;-76
2021/11/18 10:39:41;;;;;;;19.10;11.60;;;;;;;7.59;100.00;102166.66;5033055;28;20048;-76
2021/11/18 10:42:20;;;;;;;25.27;12.18;;;;;;;7.72;100.00;102183.06;5024904;28;20029;-76
2021/11/18 10:44:48;;;;;;;29.25;11.90;;;;;;;7.83;100.00;102181.44;5023523;28;20228;-76
2021/11/18 10:47:17;;;;;;;20.98;11.15;;;;;;;7.95;100.00;102175.94;5015395;28;20081;-76
2021/11/18 10:50:03;;;;;;;21.63;10.95;;;;;;;8.01;100.00;102173.03;5024573;28;20120;-76
2021/11/18 10:52:35;;;;;;;24.50;11.40;;;;;;;8.15;100.00;102170.09;5019030;28;20108;-75
2021/11/18 10:55:15;;;;;;;24.25;10.05;;;;;;;8.26;100.00;102167.31;5016859;28;20518;-77
2021/11/18 10:57:55;;;;;;;19.05;10.32;;;;;;;8.37;100.00;102162.06;5031296;28;20045;-75
2021/11/18 11:00:41;;;;;;;28.00;9.02;;;;;;;8.48;100.00;102164.03;5015671;28;20028;-75
2021/11/18 11:03:40;;;;;;;30.83;9.50;;;;;;;8.62;100.00;102173.78;5020241;28;20033;-75
2021/11/18 11:06:22;;;;;;;26.67;8.98;;;;;;;8.70;100.00;102167.88;5034908;28;20050;-75
2021/11/18 11:09:10;;;;;;;32.53;8.23;;;;;;;8.80;100.00;102175.56;5019057;28;20037;-75
2021/11/18 11:11:45;;;;;;;30.63;8.63;;;;;;;8.89;100.00;102173.31;5029694;28;20029;-76
2021/11/18 11:14:22;;;;;;;19.58;7.80;;;;;;;8.98;100.00;102173.78;5034725;28;20528;-74
2021/11/18 11:17:17;;;;;;;22.48;8.32;;;;;;;9.04;100.00;102162.53;5031007;28;20037;-75
2021/11/18 11:19:46;;;;;;;26.05;8.30;;;;;;;9.13;100.00;102161.06;5034226;28;20037;-74
2021/11/18 11:22:40;;;;;;;22.38;8.02;;;;;;;9.23;100.00;102160.47;5033862;28;20041;-75
2021/11/18 11:25:05;;;;;;;21.15;7.45;;;;;;;9.31;100.00;102159.25;5033469;28;20038;-75